createdAt,value
2022-11-30T00:01:31.304Z,25.20
2022-11-30T00:03:58.688Z,21.58
2022-11-30T00:06:26.455Z,22.95
2022-11-30T00:08:57.847Z,23.13
2022-11-30T00:11:27.335Z,21.33
2022-11-30T00:13:55.350Z,21.23
2022-11-30T00:16:23.015Z,20.92
2022-11-30T00:18:50.748Z,22.45
2022-11-30T00:21:18.535Z,19.80
2022-11-30T00:23:47.308Z,21.70
2022-11-30T00:26:17.760Z,19.95
2022-11-30T00:28:46.264Z,20.35
2022-11-30T00:31:16.363Z,21.80
2022-11-30T00:33:44.047Z,19.92
2022-11-30T00:36:19.634Z,20.33
2022-11-30T00:38:47.560Z,18.83
2022-11-30T00:41:16.015Z,19.67
2022-11-30T00:43:43.704Z,19.77
2022-11-30T00:46:11.574Z,19.08
2022-11-30T00:48:40.132Z,17.80
2022-11-30T00:51:09.383Z,18.60
2022-11-30T00:53:37.127Z,17.67
2022-11-30T00:56:05.154Z,18.30
2022-11-30T00:58:32.618Z,16.33
2022-11-30T01:01:00.463Z,19.65
2022-11-30T01:03:27.918Z,16.92
2022-11-30T01:05:55.435Z,17.10
2022-11-30T01:08:23.010Z,16.63
2022-11-30T01:10:53.801Z,15.60
2022-11-30T01:13:21.276Z,15.73
2022-11-30T01:15:48.787Z,17.25
2022-11-30T01:18:16.554Z,15.95
2022-11-30T01:20:44.327Z,15.15
2022-11-30T01:23:11.858Z,15.02
2022-11-30T01:25:39.679Z,17.23
2022-11-30T01:28:09.528Z,16.70
2022-11-30T01:30:37.155Z,14.93
2022-11-30T01:33:05.729Z,13.85
2022-11-30T01:35:33.178Z,12.95
2022-11-30T01:38:00.633Z,12.88
2022-11-30T01:40:28.065Z,13.02
2022-11-30T01:42:55.489Z,13.43
2022-11-30T01:45:23.070Z,13.98
2022-11-30T01:47:57.091Z,14.20
2022-11-30T01:50:30.590Z,13.38
2022-11-30T01:52:58.892Z,12.77
2022-11-30T01:55:38.443Z,12.25
2022-11-30T01:58:11.421Z,12.75
2022-11-30T02:00:42.841Z,15.20
2022-11-30T02:03:33.311Z,13.25
2022-11-30T02:06:01.232Z,12.40
2022-11-30T02:13:40.652Z,12.57
2022-11-30T02:16:23.272Z,14.98
2022-11-30T02:19:09.203Z,13.40
2022-11-30T02:22:03.537Z,13.85
2022-11-30T02:24:30.838Z,13.93
2022-11-30T02:27:28.779Z,14.98
2022-11-30T02:30:14.261Z,14.30
2022-11-30T02:32:44.377Z,14.57
2022-11-30T02:35:14.641Z,13.05
2022-11-30T02:37:43.168Z,12.87
2022-11-30T02:40:14.460Z,15.45
2022-11-30T02:42:41.826Z,15.02
2022-11-30T02:45:10.410Z,14.55
2022-11-30T02:47:55.787Z,13.38
2022-11-30T02:50:28.497Z,13.93
2022-11-30T02:52:56.248Z,14.85
2022-11-30T02:55:23.793Z,14.63
2022-11-30T02:57:51.258Z,13.00
2022-11-30T03:00:19.222Z,13.05
2022-11-30T03:02:46.643Z,12.98
2022-11-30T03:05:14.116Z,12.90
2022-11-30T03:07:41.595Z,12.45
2022-11-30T03:10:09.665Z,12.70
2022-11-30T03:12:37.167Z,10.75
2022-11-30T03:15:05.985Z,12.15
2022-11-30T03:17:33.606Z,12.02
2022-11-30T03:20:00.995Z,12.80
2022-11-30T03:22:28.387Z,13.35
2022-11-30T03:24:56.044Z,11.40
2022-11-30T03:27:23.588Z,12.20
2022-11-30T03:29:51.004Z,11.45
2022-11-30T03:32:19.088Z,11.93
2022-11-30T03:34:46.721Z,11.60
2022-11-30T03:37:14.420Z,11.43
2022-11-30T03:39:41.738Z,11.88
2022-11-30T03:42:09.112Z,12.38
2022-11-30T03:44:36.477Z,11.77
2022-11-30T03:47:03.904Z,12.02
2022-11-30T03:49:31.249Z,10.23
2022-11-30T03:51:58.639Z,10.65
2022-11-30T03:54:25.996Z,11.60
2022-11-30T03:56:53.412Z,11.75
2022-11-30T03:59:20.812Z,10.82
2022-11-30T04:01:48.266Z,10.80
2022-11-30T04:04:15.836Z,10.55
2022-11-30T04:06:43.174Z,10.55
2022-11-30T04:09:10.877Z,10.80
2022-11-30T04:11:38.248Z,11.60
2022-11-30T04:14:05.679Z,10.77
2022-11-30T04:16:33.274Z,11.38
2022-11-30T04:19:00.952Z,10.93
2022-11-30T04:21:28.414Z,12.05
2022-11-30T04:23:55.831Z,10.65
2022-11-30T04:26:23.287Z,11.45
2022-11-30T04:28:50.636Z,10.65
2022-11-30T04:31:18.131Z,10.43
2022-11-30T04:33:45.695Z,9.65
2022-11-30T04:36:19.524Z,9.98
2022-11-30T04:38:47.825Z,10.85
2022-11-30T04:41:15.565Z,10.48
2022-11-30T04:43:42.957Z,10.45
2022-11-30T04:46:10.706Z,10.73
2022-11-30T04:48:38.401Z,9.35
2022-11-30T04:51:08.050Z,10.18
2022-11-30T04:53:37.156Z,10.52
2022-11-30T04:56:09.304Z,11.65
2022-11-30T04:58:36.928Z,11.25
2022-11-30T05:01:04.737Z,10.10
2022-11-30T05:03:32.161Z,11.02
2022-11-30T05:05:59.537Z,8.93
2022-11-30T05:08:26.973Z,10.55
2022-11-30T05:10:54.971Z,9.93
2022-11-30T05:13:24.293Z,10.35
2022-11-30T05:15:53.812Z,9.65
2022-11-30T05:18:21.558Z,10.85
2022-11-30T05:20:50.028Z,8.93
2022-11-30T05:23:18.028Z,10.57
2022-11-30T05:25:45.665Z,10.88
2022-11-30T05:28:14.162Z,10.10
2022-11-30T05:30:42.784Z,11.02
2022-11-30T05:33:10.624Z,10.15
2022-11-30T05:35:38.614Z,10.65
2022-11-30T05:38:07.074Z,10.60
2022-11-30T05:40:34.590Z,11.48
2022-11-30T05:43:03.336Z,11.10
2022-11-30T05:45:30.947Z,10.60
2022-11-30T05:47:58.432Z,11.32
2022-11-30T05:50:25.857Z,10.70
2022-11-30T05:52:56.476Z,11.70
2022-11-30T05:55:24.763Z,9.88
2022-11-30T05:57:52.211Z,11.70
2022-11-30T06:00:20.678Z,12.48
2022-11-30T06:02:48.581Z,10.48
2022-11-30T06:05:16.118Z,11.05
2022-11-30T06:07:43.537Z,11.73
2022-11-30T06:10:11.698Z,10.73
2022-11-30T06:12:39.094Z,11.07
2022-11-30T06:15:07.942Z,12.50
2022-11-30T06:17:37.919Z,10.45
2022-11-30T06:20:06.711Z,11.10
2022-11-30T06:22:34.199Z,11.05
2022-11-30T06:25:01.548Z,11.00
2022-11-30T06:27:32.462Z,12.80
2022-11-30T06:29:59.892Z,10.38
2022-11-30T06:32:27.376Z,14.30
2022-11-30T06:34:54.759Z,11.82
2022-11-30T06:37:22.169Z,10.55
2022-11-30T06:40:06.054Z,11.02
2022-11-30T06:42:36.074Z,11.52
2022-11-30T06:45:05.514Z,11.82
2022-11-30T06:47:33.263Z,12.25
2022-11-30T06:50:00.614Z,11.00
2022-11-30T06:52:31.308Z,12.50
2022-11-30T06:54:58.731Z,12.60
2022-11-30T06:57:29.718Z,12.25
2022-11-30T06:59:57.974Z,11.05
2022-11-30T07:02:25.353Z,11.93
2022-11-30T07:04:52.910Z,11.48
2022-11-30T07:07:20.360Z,12.02
2022-11-30T07:09:47.804Z,10.68
2022-11-30T07:12:15.193Z,12.77
2022-11-30T07:14:42.568Z,12.50
2022-11-30T07:17:11.214Z,11.88
2022-11-30T07:19:38.623Z,12.10
2022-11-30T07:22:06.055Z,13.25
2022-11-30T07:24:52.137Z,14.02
2022-11-30T07:27:19.553Z,14.48
2022-11-30T07:29:48.931Z,13.40
2022-11-30T07:32:16.305Z,13.40
2022-11-30T07:34:43.848Z,12.43
2022-11-30T07:37:11.681Z,12.57
2022-11-30T07:39:39.064Z,13.15
2022-11-30T07:42:06.437Z,19.52
2022-11-30T07:44:33.841Z,14.15
2022-11-30T07:47:01.527Z,12.15
2022-11-30T07:49:28.884Z,13.30
2022-11-30T07:51:56.298Z,12.48
2022-11-30T07:54:23.693Z,13.55
2022-11-30T07:56:51.166Z,13.75
2022-11-30T07:59:18.756Z,12.13
2022-11-30T08:01:46.263Z,12.30
2022-11-30T08:04:13.960Z,12.82
2022-11-30T08:06:41.590Z,11.63
2022-11-30T08:09:17.818Z,11.85
2022-11-30T08:11:49.940Z,11.80
2022-11-30T08:14:17.563Z,12.40
2022-11-30T08:16:44.996Z,12.77
2022-11-30T08:19:12.390Z,12.15
2022-11-30T08:21:39.751Z,11.98
2022-11-30T08:24:11.323Z,13.00
2022-11-30T08:26:38.748Z,12.85
2022-11-30T08:29:11.538Z,14.20
2022-11-30T08:31:39.784Z,11.48
2022-11-30T08:34:09.986Z,12.23
2022-11-30T08:36:39.176Z,13.60
2022-11-30T08:39:08.608Z,13.25
2022-11-30T08:41:39.068Z,13.77
2022-11-30T08:44:06.619Z,13.40
2022-11-30T08:49:24.428Z,13.00
2022-11-30T08:54:47.619Z,12.83
2022-11-30T08:57:17.642Z,13.55
2022-11-30T08:59:45.211Z,12.80
2022-11-30T09:02:17.453Z,14.43
2022-11-30T09:04:45.599Z,11.18
2022-11-30T09:07:13.277Z,12.05
2022-11-30T09:09:40.719Z,12.40
2022-11-30T09:12:08.457Z,12.63
2022-11-30T09:14:36.370Z,13.43
2022-11-30T09:17:04.268Z,13.13
2022-11-30T09:19:31.726Z,18.05
2022-11-30T09:21:59.164Z,13.95
2022-11-30T09:24:26.539Z,17.38
2022-11-30T09:26:57.505Z,16.02
2022-11-30T09:29:25.009Z,13.50
2022-11-30T09:31:52.679Z,12.10
2022-11-30T09:34:20.253Z,12.10
2022-11-30T09:36:47.691Z,13.27
2022-11-30T09:39:15.179Z,13.15
2022-11-30T09:41:42.582Z,13.27
2022-11-30T09:44:18.452Z,13.75
2022-11-30T09:47:19.492Z,13.60
2022-11-30T09:49:47.951Z,14.68
2022-11-30T09:52:25.084Z,13.60
2022-11-30T09:54:52.817Z,14.05
2022-11-30T09:57:41.506Z,13.95
2022-11-30T10:00:21.892Z,14.70
2022-11-30T10:02:51.532Z,14.10
2022-11-30T10:05:35.277Z,12.65
2022-11-30T10:08:22.293Z,14.07
2022-11-30T10:11:15.282Z,14.68
2022-11-30T10:14:09.386Z,13.80
2022-11-30T10:16:54.002Z,12.13
2022-11-30T10:19:58.919Z,12.13
2022-11-30T10:23:02.213Z,11.20
2022-11-30T10:25:41.590Z,10.80
2022-11-30T10:28:49.103Z,10.02
2022-11-30T10:31:18.079Z,9.80
2022-11-30T10:33:51.328Z,13.15
2022-11-30T10:36:46.993Z,13.23
2022-11-30T10:39:45.439Z,12.70
2022-11-30T10:42:14.074Z,14.40
2022-11-30T10:44:46.957Z,14.45
2022-11-30T10:47:17.537Z,13.85
2022-11-30T10:49:49.114Z,12.83
2022-11-30T10:52:22.830Z,15.43
2022-11-30T10:54:56.004Z,13.15
2022-11-30T10:57:31.685Z,15.35
2022-11-30T11:00:01.128Z,13.75
2022-11-30T11:02:39.352Z,14.82
2022-11-30T11:05:18.565Z,17.27
2022-11-30T11:07:52.780Z,15.57
2022-11-30T11:10:25.509Z,14.77
2022-11-30T11:12:55.353Z,14.15
2022-11-30T11:15:28.897Z,13.50
2022-11-30T11:18:29.835Z,13.50
2022-11-30T11:21:17.855Z,13.65
2022-11-30T11:23:46.781Z,14.38
2022-11-30T11:26:24.224Z,13.80
2022-11-30T11:28:54.240Z,14.15
2022-11-30T11:31:40.925Z,21.80
2022-11-30T11:34:31.804Z,16.70
2022-11-30T11:37:10.222Z,17.92
2022-11-30T11:39:37.641Z,15.80
2022-11-30T11:42:05.570Z,15.38
2022-11-30T11:44:33.735Z,13.52
2022-11-30T11:47:07.729Z,14.13
2022-11-30T11:49:37.229Z,14.48
2022-11-30T11:52:17.800Z,14.57
2022-11-30T11:54:51.098Z,14.13
2022-11-30T11:57:22.175Z,13.07
2022-11-30T11:59:59.317Z,13.73
2022-11-30T12:02:47.955Z,14.73
2022-11-30T12:05:24.762Z,13.25
2022-11-30T12:08:07.988Z,14.10
2022-11-30T12:10:54.238Z,13.40
2022-11-30T12:13:33.150Z,12.43
2022-11-30T12:16:24.452Z,12.52
2022-11-30T12:21:59.605Z,11.50
2022-11-30T12:24:54.995Z,12.30
2022-11-30T12:28:03.783Z,10.07
2022-11-30T12:30:42.627Z,9.48
2022-11-30T12:33:26.334Z,11.27
2022-11-30T12:35:56.527Z,6.88
2022-11-30T12:38:34.883Z,6.57
2022-11-30T12:41:02.226Z,6.40
2022-11-30T12:43:47.011Z,7.28
2022-11-30T12:46:32.815Z,7.40
2022-11-30T12:49:22.780Z,8.85
2022-11-30T12:52:04.962Z,7.25
2022-11-30T12:54:37.598Z,8.05
2022-11-30T12:57:48.625Z,6.00
2022-11-30T13:00:24.502Z,5.88
2022-11-30T13:02:57.860Z,6.65
2022-11-30T13:05:34.684Z,6.80
2022-11-30T13:08:13.968Z,8.25
2022-11-30T13:10:45.633Z,7.70
2022-11-30T13:13:18.165Z,7.35
2022-11-30T13:15:47.689Z,6.78
2022-11-30T13:18:21.607Z,6.00
2022-11-30T13:21:03.257Z,7.18
2022-11-30T13:24:02.490Z,6.10
2022-11-30T13:26:42.833Z,6.63
2022-11-30T13:29:27.901Z,7.72
2022-11-30T13:32:55.415Z,9.82
2022-11-30T13:35:30.091Z,9.88
2022-11-30T13:38:41.783Z,11.20
2022-11-30T13:41:09.445Z,10.70
2022-11-30T13:43:44.311Z,10.82
2022-11-30T13:46:12.332Z,11.02
2022-11-30T13:48:41.859Z,11.88
2022-11-30T13:51:10.646Z,11.63
2022-11-30T13:53:39.834Z,11.25
2022-11-30T13:56:19.452Z,10.25
2022-11-30T13:59:29.106Z,12.75
2022-11-30T14:02:33.883Z,12.18
2022-11-30T14:05:19.236Z,14.48
2022-11-30T14:07:46.813Z,12.45
2022-11-30T14:10:30.794Z,12.45
2022-11-30T14:12:59.713Z,13.98
2022-11-30T14:20:15.421Z,16.65
2022-11-30T14:22:44.235Z,14.95
2022-11-30T14:25:20.668Z,14.38
2022-11-30T14:27:53.106Z,14.35
2022-11-30T14:30:23.134Z,14.80
2022-11-30T14:33:01.762Z,14.15
2022-11-30T14:35:31.088Z,15.13
2022-11-30T14:38:00.368Z,14.88
2022-11-30T14:40:33.695Z,13.55
2022-11-30T14:43:02.590Z,12.60
2022-11-30T14:45:32.705Z,13.93
2022-11-30T14:48:07.920Z,12.82
2022-11-30T14:50:36.854Z,13.98
2022-11-30T14:53:06.941Z,14.02
2022-11-30T14:55:54.685Z,15.30
2022-11-30T14:58:43.814Z,15.38
2022-11-30T15:01:20.923Z,14.65
2022-11-30T15:03:50.922Z,15.15
2022-11-30T15:06:20.985Z,13.32
2022-11-30T15:08:55.468Z,15.02
2022-11-30T15:11:23.667Z,14.52
2022-11-30T15:13:54.307Z,14.18
2022-11-30T15:16:24.837Z,14.30
2022-11-30T15:18:54.297Z,12.38
2022-11-30T15:21:24.784Z,13.88
2022-11-30T15:23:54.442Z,14.07
2022-11-30T15:26:23.781Z,14.27
2022-11-30T15:29:06.155Z,14.70
2022-11-30T15:31:40.081Z,14.40
2022-11-30T15:34:16.839Z,13.98
2022-11-30T15:36:44.840Z,13.68
2022-11-30T15:39:23.462Z,13.40
2022-11-30T15:41:56.192Z,13.43
2022-11-30T15:44:47.583Z,12.70
2022-11-30T15:47:31.702Z,13.48
2022-11-30T15:49:59.078Z,13.65
2022-11-30T15:52:29.155Z,12.48
2022-11-30T15:54:59.822Z,12.82
2022-11-30T15:57:47.936Z,12.27
2022-11-30T16:00:20.091Z,14.80
2022-11-30T16:02:47.644Z,15.02
2022-11-30T16:05:19.668Z,13.50
2022-11-30T16:08:02.773Z,13.10
2022-11-30T16:15:17.245Z,13.15
2022-11-30T16:17:44.924Z,12.73
2022-11-30T16:20:13.973Z,13.07
2022-11-30T16:22:42.830Z,12.60
2022-11-30T16:25:23.747Z,12.30
2022-11-30T16:27:52.003Z,11.95
2022-11-30T16:30:23.898Z,13.10
2022-11-30T16:32:51.393Z,12.15
2022-11-30T16:35:21.874Z,12.13
2022-11-30T16:37:50.158Z,12.13
2022-11-30T16:40:18.425Z,12.93
2022-11-30T16:42:49.162Z,12.52
2022-11-30T16:45:23.952Z,13.90
2022-11-30T16:47:52.359Z,13.90
2022-11-30T16:50:20.184Z,12.52
2022-11-30T16:52:47.904Z,13.57
2022-11-30T16:55:18.105Z,13.38
2022-11-30T16:57:46.036Z,13.80
2022-11-30T17:00:17.152Z,14.13
2022-11-30T17:05:20.987Z,13.75
2022-11-30T17:07:48.734Z,13.52
2022-11-30T17:10:16.310Z,14.00
2022-11-30T17:12:43.902Z,15.20
2022-11-30T17:15:17.676Z,14.00
2022-11-30T17:17:45.520Z,15.57
2022-11-30T17:20:14.052Z,14.20
2022-11-30T17:22:41.886Z,14.63
2022-11-30T17:25:15.774Z,16.60
2022-11-30T17:27:44.122Z,15.52
2022-11-30T17:30:13.881Z,15.43
2022-11-30T17:32:41.319Z,17.20
2022-11-30T17:35:09.342Z,16.60
2022-11-30T17:37:36.752Z,16.60
2022-11-30T17:40:05.152Z,16.33
2022-11-30T17:42:32.834Z,17.13
2022-11-30T17:45:00.263Z,15.70
2022-11-30T17:47:27.698Z,15.07
2022-11-30T17:49:55.163Z,16.02
2022-11-30T17:52:22.630Z,16.13
2022-11-30T17:54:50.287Z,16.67
2022-11-30T17:57:17.955Z,14.45
2022-11-30T17:59:45.304Z,15.73
2022-11-30T18:02:12.912Z,15.82
2022-11-30T18:04:40.279Z,16.10
2022-11-30T18:07:07.654Z,16.88
2022-11-30T18:09:39.392Z,18.63
2022-11-30T18:12:10.639Z,21.67
2022-11-30T18:14:38.008Z,18.35
2022-11-30T18:17:05.417Z,17.85
2022-11-30T18:19:32.849Z,17.73
2022-11-30T18:22:00.295Z,18.02
2022-11-30T18:24:27.794Z,18.25
2022-11-30T18:26:57.427Z,17.77
2022-11-30T18:29:25.432Z,16.73
2022-11-30T18:31:52.908Z,16.73
2022-11-30T18:34:20.309Z,18.35
2022-11-30T18:36:47.698Z,17.08
2022-11-30T18:39:15.626Z,16.58
2022-11-30T18:41:43.067Z,25.98
2022-11-30T18:44:10.650Z,16.90
2022-11-30T18:46:38.153Z,17.35
2022-11-30T18:49:06.887Z,17.58
2022-11-30T18:51:34.319Z,16.83
2022-11-30T18:54:04.795Z,18.05
2022-11-30T18:56:34.648Z,18.00
2022-11-30T18:59:21.610Z,17.70
2022-11-30T19:01:50.992Z,17.80
2022-11-30T19:04:18.455Z,19.38
2022-11-30T19:06:45.850Z,19.13
2022-11-30T19:09:15.183Z,18.73
2022-11-30T19:11:43.596Z,18.40
2022-11-30T19:14:14.237Z,18.75
2022-11-30T19:16:42.423Z,19.60
2022-11-30T19:19:13.956Z,17.77
2022-11-30T19:21:44.278Z,19.52
2022-11-30T19:24:11.715Z,20.55
2022-11-30T19:26:40.212Z,19.38
2022-11-30T19:29:08.093Z,17.67
2022-11-30T19:31:35.577Z,13.20
2022-11-30T19:34:09.091Z,12.65
2022-11-30T19:36:39.654Z,12.63
2022-11-30T19:39:07.141Z,14.32
2022-11-30T19:41:34.491Z,14.27
2022-11-30T19:44:03.941Z,13.45
2022-11-30T19:46:33.128Z,13.68
2022-11-30T19:49:01.739Z,14.57
2022-11-30T19:51:30.984Z,14.32
2022-11-30T19:54:01.027Z,14.18
2022-11-30T19:56:31.277Z,14.13
2022-11-30T19:59:04.569Z,14.40
2022-11-30T20:01:33.846Z,15.38
2022-11-30T20:04:02.171Z,16.58
2022-11-30T20:06:37.580Z,11.43
2022-11-30T20:09:07.127Z,12.63
2022-11-30T20:11:35.327Z,11.90
2022-11-30T20:14:03.110Z,19.50
2022-11-30T20:16:30.795Z,10.90
2022-11-30T20:19:02.809Z,10.30
2022-11-30T20:21:33.123Z,9.43
2022-11-30T20:24:04.362Z,10.32
2022-11-30T20:26:40.556Z,10.95
2022-11-30T20:29:12.228Z,10.65
2022-11-30T20:31:40.493Z,15.82
2022-11-30T20:34:08.685Z,14.25
2022-11-30T20:36:37.916Z,15.05
2022-11-30T20:39:05.764Z,12.77
2022-11-30T20:41:34.036Z,14.80
2022-11-30T20:44:01.622Z,15.75
2022-11-30T20:46:31.343Z,14.50
2022-11-30T20:48:59.949Z,15.35
2022-11-30T20:51:33.466Z,17.13
2022-11-30T20:54:07.143Z,16.95
2022-11-30T20:56:37.138Z,15.48
2022-11-30T20:59:12.594Z,16.98
2022-11-30T21:01:45.486Z,14.02
2022-11-30T21:04:12.963Z,14.50
2022-11-30T21:06:45.621Z,14.73
2022-11-30T21:09:15.470Z,15.15
2022-11-30T21:11:44.269Z,14.45
2022-11-30T21:14:12.520Z,14.95
2022-11-30T21:16:40.397Z,17.33
2022-11-30T21:19:07.842Z,16.17
2022-11-30T21:21:35.968Z,16.55
2022-11-30T21:24:06.486Z,17.88
2022-11-30T21:26:37.182Z,18.85
2022-11-30T21:29:08.025Z,15.60
2022-11-30T21:31:35.551Z,15.93
2022-11-30T21:34:03.576Z,16.60
2022-11-30T21:36:30.969Z,17.13
2022-11-30T21:39:06.827Z,16.05
2022-11-30T21:41:39.391Z,15.77
2022-11-30T21:44:09.749Z,17.33
2022-11-30T21:46:37.336Z,15.25
2022-11-30T21:49:05.097Z,19.35
2022-11-30T21:51:32.985Z,16.08
2022-11-30T21:54:03.196Z,14.85
2022-11-30T21:59:01.638Z,14.70
2022-11-30T22:01:31.591Z,16.35
2022-11-30T22:04:00.625Z,15.15
2022-11-30T22:06:30.385Z,13.60
2022-11-30T22:09:03.571Z,14.82
2022-11-30T22:11:31.273Z,15.20
2022-11-30T22:13:58.693Z,14.80
2022-11-30T22:16:32.411Z,15.05
2022-11-30T22:19:03.119Z,16.13
2022-11-30T22:21:31.197Z,15.57
2022-11-30T22:24:01.583Z,21.02
2022-11-30T22:26:34.951Z,19.67
2022-11-30T22:29:05.801Z,22.77
2022-11-30T22:31:39.222Z,15.45
2022-11-30T22:34:07.724Z,14.13
2022-11-30T22:36:37.250Z,14.10
2022-11-30T22:39:07.858Z,13.57
2022-11-30T22:41:35.487Z,14.80
2022-11-30T22:44:03.027Z,15.38
2022-11-30T22:46:33.107Z,13.63
2022-11-30T22:49:02.706Z,13.15
2022-11-30T22:51:31.813Z,14.32
2022-11-30T22:53:59.734Z,15.90
2022-11-30T22:56:36.011Z,13.65
2022-11-30T22:59:04.599Z,14.35
2022-11-30T23:01:36.904Z,16.00
2022-11-30T23:04:10.546Z,16.20
2022-11-30T23:06:39.462Z,14.63
2022-11-30T23:09:10.579Z,14.30
2022-11-30T23:14:08.373Z,13.43
2022-11-30T23:16:37.106Z,14.00
2022-11-30T23:19:07.153Z,14.82
2022-11-30T23:21:41.468Z,13.73
2022-11-30T23:24:14.431Z,13.38
2022-11-30T23:26:43.407Z,14.95
2022-11-30T23:29:14.095Z,13.60
2022-11-30T23:31:44.109Z,13.18
2022-11-30T23:34:21.293Z,13.30
2022-11-30T23:36:50.755Z,14.55
2022-11-30T23:39:19.725Z,14.23
2022-11-30T23:41:47.708Z,13.70
2022-11-30T23:44:15.885Z,13.93
2022-11-30T23:46:44.042Z,13.50
2022-11-30T23:49:14.471Z,13.40
2022-11-30T23:51:43.431Z,13.68
2022-11-30T23:54:11.851Z,14.30
2022-11-30T23:56:39.335Z,14.88
2022-11-30T23:59:06.695Z,15.15
